sensor_id;sensor_type;location;lat;lon;timestamp;P1;durP1;ratioP1;P2;durP2;ratioP2
69502;SDS011;56704;54.242;12.442;2023-03-01T00:00:38;4.03;;;1.03;;
69502;SDS011;56704;54.242;12.442;2023-03-01T00:03:05;6.15;;;2.03;;
69502;SDS011;56704;54.242;12.442;2023-03-01T00:05:32;6.22;;;1.70;;
69502;SDS011;56704;54.242;12.442;2023-03-01T00:08:00;8.52;;;2.33;;
69502;SDS011;56704;54.242;12.442;2023-03-01T00:10:26;7.75;;;2.40;;
69502;SDS011;56704;54.242;12.442;2023-03-01T00:12:53;10.47;;;2.33;;
69502;SDS011;56704;54.242;12.442;2023-03-01T00:15:21;9.15;;;3.63;;
69502;SDS011;56704;54.242;12.442;2023-03-01T00:17:48;6.28;;;2.00;;
69502;SDS011;56704;54.242;12.442;2023-03-01T00:20:14;6.45;;;1.55;;
69502;SDS011;56704;54.242;12.442;2023-03-01T00:22:41;8.20;;;2.30;;
69502;SDS011;56704;54.242;12.442;2023-03-01T00:25:09;8.50;;;2.60;;
69502;SDS011;56704;54.242;12.442;2023-03-01T00:27:36;6.57;;;2.22;;
69502;SDS011;56704;54.242;12.442;2023-03-01T00:30:03;8.52;;;2.17;;
69502;SDS011;56704;54.242;12.442;2023-03-01T00:32:30;7.65;;;2.33;;
69502;SDS011;56704;54.242;12.442;2023-03-01T00:34:56;6.30;;;2.40;;
69502;SDS011;56704;54.242;12.442;2023-03-01T00:37:23;7.27;;;2.27;;
69502;SDS011;56704;54.242;12.442;2023-03-01T00:39:50;6.90;;;2.15;;
69502;SDS011;56704;54.242;12.442;2023-03-01T00:42:18;8.32;;;1.92;;
69502;SDS011;56704;54.242;12.442;2023-03-01T00:44:44;6.43;;;1.95;;
69502;SDS011;56704;54.242;12.442;2023-03-01T00:47:11;8.40;;;2.28;;
69502;SDS011;56704;54.242;12.442;2023-03-01T00:49:38;6.63;;;1.87;;
69502;SDS011;56704;54.242;12.442;2023-03-01T00:52:05;7.18;;;2.45;;
69502;SDS011;56704;54.242;12.442;2023-03-01T00:54:32;8.68;;;2.05;;
69502;SDS011;56704;54.242;12.442;2023-03-01T00:56:58;7.10;;;1.90;;
69502;SDS011;56704;54.242;12.442;2023-03-01T00:59:26;7.38;;;2.40;;
69502;SDS011;56704;54.242;12.442;2023-03-01T01:01:53;7.60;;;2.07;;
69502;SDS011;56704;54.242;12.442;2023-03-01T01:04:19;3.88;;;1.40;;
69502;SDS011;56704;54.242;12.442;2023-03-01T01:06:46;6.07;;;1.27;;
69502;SDS011;56704;54.242;12.442;2023-03-01T01:09:14;7.45;;;1.48;;
69502;SDS011;56704;54.242;12.442;2023-03-01T01:11:43;5.68;;;1.92;;
69502;SDS011;56704;54.242;12.442;2023-03-01T01:14:10;7.77;;;1.80;;
69502;SDS011;56704;54.242;12.442;2023-03-01T01:16:38;5.47;;;1.50;;
69502;SDS011;56704;54.242;12.442;2023-03-01T01:19:05;11.38;;;1.00;;
69502;SDS011;56704;54.242;12.442;2023-03-01T01:21:32;4.93;;;1.50;;
69502;SDS011;56704;54.242;12.442;2023-03-01T01:23:59;5.38;;;1.63;;
69502;SDS011;56704;54.242;12.442;2023-03-01T01:26:26;9.90;;;1.50;;
69502;SDS011;56704;54.242;12.442;2023-03-01T01:28:54;4.80;;;1.65;;
69502;SDS011;56704;54.242;12.442;2023-03-01T01:31:21;6.78;;;1.85;;
69502;SDS011;56704;54.242;12.442;2023-03-01T01:33:51;8.23;;;2.03;;
69502;SDS011;56704;54.242;12.442;2023-03-01T01:36:18;3.33;;;0.98;;
69502;SDS011;56704;54.242;12.442;2023-03-01T01:38:44;6.87;;;1.90;;
69502;SDS011;56704;54.242;12.442;2023-03-01T01:41:12;7.65;;;1.45;;
69502;SDS011;56704;54.242;12.442;2023-03-01T01:43:39;7.15;;;2.38;;
69502;SDS011;56704;54.242;12.442;2023-03-01T01:46:10;6.82;;;2.35;;
69502;SDS011;56704;54.242;12.442;2023-03-01T01:48:43;7.63;;;2.60;;
69502;SDS011;56704;54.242;12.442;2023-03-01T01:51:16;8.33;;;2.50;;
69502;SDS011;56704;54.242;12.442;2023-03-01T01:53:46;6.57;;;2.45;;
69502;SDS011;56704;54.242;12.442;2023-03-01T01:56:16;8.60;;;3.00;;
69502;SDS011;56704;54.242;12.442;2023-03-01T01:58:44;6.28;;;2.10;;
69502;SDS011;56704;54.242;12.442;2023-03-01T02:01:12;8.30;;;2.38;;
69502;SDS011;56704;54.242;12.442;2023-03-01T02:03:39;7.80;;;2.40;;
69502;SDS011;56704;54.242;12.442;2023-03-01T02:06:12;5.70;;;2.00;;
69502;SDS011;56704;54.242;12.442;2023-03-01T02:08:43;8.88;;;2.25;;
69502;SDS011;56704;54.242;12.442;2023-03-01T02:11:12;7.05;;;2.20;;
69502;SDS011;56704;54.242;12.442;2023-03-01T02:13:40;9.10;;;2.58;;
69502;SDS011;56704;54.242;12.442;2023-03-01T02:16:08;6.70;;;2.40;;
69502;SDS011;56704;54.242;12.442;2023-03-01T02:18:36;6.18;;;2.13;;
69502;SDS011;56704;54.242;12.442;2023-03-01T02:21:08;7.85;;;2.90;;
69502;SDS011;56704;54.242;12.442;2023-03-01T02:23:49;6.28;;;2.00;;
69502;SDS011;56704;54.242;12.442;2023-03-01T02:26:18;8.57;;;2.92;;
69502;SDS011;56704;54.242;12.442;2023-03-01T02:28:48;7.53;;;1.93;;
69502;SDS011;56704;54.242;12.442;2023-03-01T02:31:16;9.32;;;2.55;;
69502;SDS011;56704;54.242;12.442;2023-03-01T02:34:03;5.80;;;2.28;;
69502;SDS011;56704;54.242;12.442;2023-03-01T02:36:31;6.22;;;2.22;;
69502;SDS011;56704;54.242;12.442;2023-03-01T02:39:01;8.18;;;2.50;;
69502;SDS011;56704;54.242;12.442;2023-03-01T02:41:31;9.87;;;3.00;;
69502;SDS011;56704;54.242;12.442;2023-03-01T02:44:03;6.75;;;1.83;;
69502;SDS011;56704;54.242;12.442;2023-03-01T02:46:30;7.75;;;2.47;;
69502;SDS011;56704;54.242;12.442;2023-03-01T02:48:57;7.28;;;2.17;;
69502;SDS011;56704;54.242;12.442;2023-03-01T02:51:28;8.07;;;2.55;;
69502;SDS011;56704;54.242;12.442;2023-03-01T02:54:12;6.90;;;2.23;;
69502;SDS011;56704;54.242;12.442;2023-03-01T02:56:43;6.97;;;2.47;;
69502;SDS011;56704;54.242;12.442;2023-03-01T02:59:14;8.45;;;2.40;;
69502;SDS011;56704;54.242;12.442;2023-03-01T03:01:42;7.28;;;2.47;;
69502;SDS011;56704;54.242;12.442;2023-03-01T03:04:10;7.03;;;2.30;;
69502;SDS011;56704;54.242;12.442;2023-03-01T03:06:42;8.67;;;2.23;;
69502;SDS011;56704;54.242;12.442;2023-03-01T03:09:08;7.93;;;2.47;;
69502;SDS011;56704;54.242;12.442;2023-03-01T03:11:35;8.57;;;2.65;;
69502;SDS011;56704;54.242;12.442;2023-03-01T03:14:04;6.15;;;2.42;;
69502;SDS011;56704;54.242;12.442;2023-03-01T03:16:32;7.03;;;2.10;;
69502;SDS011;56704;54.242;12.442;2023-03-01T03:18:58;8.97;;;2.40;;
69502;SDS011;56704;54.242;12.442;2023-03-01T03:21:30;7.75;;;2.28;;
69502;SDS011;56704;54.242;12.442;2023-03-01T03:23:56;6.60;;;2.40;;
69502;SDS011;56704;54.242;12.442;2023-03-01T03:26:23;9.05;;;2.63;;
69502;SDS011;56704;54.242;12.442;2023-03-01T03:28:50;9.00;;;2.92;;
69502;SDS011;56704;54.242;12.442;2023-03-01T03:31:18;6.73;;;1.80;;
69502;SDS011;56704;54.242;12.442;2023-03-01T03:33:46;7.28;;;2.10;;
69502;SDS011;56704;54.242;12.442;2023-03-01T03:36:14;5.30;;;2.03;;
69502;SDS011;56704;54.242;12.442;2023-03-01T03:38:43;8.35;;;2.05;;
69502;SDS011;56704;54.242;12.442;2023-03-01T03:41:10;7.18;;;2.42;;
69502;SDS011;56704;54.242;12.442;2023-03-01T03:43:37;7.43;;;2.50;;
69502;SDS011;56704;54.242;12.442;2023-03-01T03:46:05;9.07;;;2.80;;
69502;SDS011;56704;54.242;12.442;2023-03-01T03:48:36;11.00;;;2.45;;
69502;SDS011;56704;54.242;12.442;2023-03-01T03:51:06;7.43;;;2.60;;
69502;SDS011;56704;54.242;12.442;2023-03-01T03:53:35;7.57;;;2.38;;
69502;SDS011;56704;54.242;12.442;2023-03-01T03:56:02;11.33;;;2.50;;
69502;SDS011;56704;54.242;12.442;2023-03-01T03:58:28;8.77;;;2.80;;
69502;SDS011;56704;54.242;12.442;2023-03-01T04:00:56;8.05;;;2.90;;
69502;SDS011;56704;54.242;12.442;2023-03-01T04:03:24;7.22;;;2.47;;
69502;SDS011;56704;54.242;12.442;2023-03-01T04:05:52;10.23;;;2.97;;
69502;SDS011;56704;54.242;12.442;2023-03-01T04:08:20;6.77;;;2.53;;
69502;SDS011;56704;54.242;12.442;2023-03-01T04:10:48;7.57;;;2.25;;
69502;SDS011;56704;54.242;12.442;2023-03-01T04:13:16;6.18;;;1.83;;
69502;SDS011;56704;54.242;12.442;2023-03-01T04:15:45;6.93;;;2.10;;
69502;SDS011;56704;54.242;12.442;2023-03-01T04:18:11;7.53;;;2.13;;
69502;SDS011;56704;54.242;12.442;2023-03-01T04:20:39;7.40;;;2.37;;
69502;SDS011;56704;54.242;12.442;2023-03-01T04:23:07;6.18;;;2.10;;
69502;SDS011;56704;54.242;12.442;2023-03-01T04:25:40;6.85;;;2.17;;
69502;SDS011;56704;54.242;12.442;2023-03-01T04:28:08;7.75;;;2.45;;
69502;SDS011;56704;54.242;12.442;2023-03-01T04:30:35;7.90;;;2.40;;
69502;SDS011;56704;54.242;12.442;2023-03-01T04:33:03;8.50;;;2.10;;
69502;SDS011;56704;54.242;12.442;2023-03-01T04:35:31;4.72;;;1.02;;
69502;SDS011;56704;54.242;12.442;2023-03-01T04:37:58;5.90;;;1.38;;
69502;SDS011;56704;54.242;12.442;2023-03-01T04:40:24;5.32;;;1.67;;
69502;SDS011;56704;54.242;12.442;2023-03-01T04:42:52;11.32;;;3.65;;
69502;SDS011;56704;54.242;12.442;2023-03-01T04:45:19;9.33;;;3.27;;
69502;SDS011;56704;54.242;12.442;2023-03-01T04:47:46;7.40;;;3.22;;
69502;SDS011;56704;54.242;12.442;2023-03-01T04:50:13;8.30;;;2.97;;
69502;SDS011;56704;54.242;12.442;2023-03-01T04:52:42;7.47;;;2.75;;
69502;SDS011;56704;54.242;12.442;2023-03-01T04:55:10;5.63;;;2.53;;
69502;SDS011;56704;54.242;12.442;2023-03-01T04:57:37;9.17;;;2.73;;
69502;SDS011;56704;54.242;12.442;2023-03-01T05:00:06;4.43;;;1.38;;
69502;SDS011;56704;54.242;12.442;2023-03-01T05:02:45;7.50;;;2.80;;
69502;SDS011;56704;54.242;12.442;2023-03-01T05:05:13;6.35;;;2.30;;
69502;SDS011;56704;54.242;12.442;2023-03-01T05:07:40;8.98;;;3.22;;
69502;SDS011;56704;54.242;12.442;2023-03-01T05:10:07;10.30;;;3.80;;
69502;SDS011;56704;54.242;12.442;2023-03-01T05:12:34;7.50;;;3.05;;
69502;SDS011;56704;54.242;12.442;2023-03-01T05:15:02;10.43;;;3.72;;
69502;SDS011;56704;54.242;12.442;2023-03-01T05:17:33;11.18;;;4.07;;
69502;SDS011;56704;54.242;12.442;2023-03-01T05:20:00;10.05;;;3.85;;
69502;SDS011;56704;54.242;12.442;2023-03-01T05:22:32;9.07;;;3.53;;
69502;SDS011;56704;54.242;12.442;2023-03-01T05:24:58;14.82;;;3.90;;
69502;SDS011;56704;54.242;12.442;2023-03-01T05:27:25;8.93;;;3.30;;
69502;SDS011;56704;54.242;12.442;2023-03-01T05:29:51;12.70;;;3.97;;
69502;SDS011;56704;54.242;12.442;2023-03-01T05:32:18;8.88;;;3.13;;
69502;SDS011;56704;54.242;12.442;2023-03-01T05:34:46;9.40;;;3.07;;
69502;SDS011;56704;54.242;12.442;2023-03-01T05:37:12;11.77;;;4.28;;
69502;SDS011;56704;54.242;12.442;2023-03-01T05:39:39;11.02;;;4.13;;
69502;SDS011;56704;54.242;12.442;2023-03-01T05:42:09;10.90;;;3.90;;
69502;SDS011;56704;54.242;12.442;2023-03-01T05:44:37;10.23;;;3.88;;
69502;SDS011;56704;54.242;12.442;2023-03-01T05:47:03;13.23;;;4.50;;
69502;SDS011;56704;54.242;12.442;2023-03-01T05:49:31;12.25;;;3.97;;
69502;SDS011;56704;54.242;12.442;2023-03-01T05:51:59;13.30;;;4.25;;
69502;SDS011;56704;54.242;12.442;2023-03-01T05:54:25;14.18;;;4.57;;
69502;SDS011;56704;54.242;12.442;2023-03-01T05:56:52;13.55;;;4.60;;
69502;SDS011;56704;54.242;12.442;2023-03-01T05:59:19;12.27;;;4.70;;
69502;SDS011;56704;54.242;12.442;2023-03-01T06:01:45;13.45;;;4.95;;
69502;SDS011;56704;54.242;12.442;2023-03-01T06:04:12;10.13;;;2.83;;
69502;SDS011;56704;54.242;12.442;2023-03-01T06:06:38;11.95;;;4.35;;
69502;SDS011;56704;54.242;12.442;2023-03-01T06:09:06;13.15;;;4.55;;
69502;SDS011;56704;54.242;12.442;2023-03-01T06:11:34;4.83;;;1.47;;
69502;SDS011;56704;54.242;12.442;2023-03-01T06:14:02;7.80;;;2.85;;
69502;SDS011;56704;54.242;12.442;2023-03-01T06:16:28;9.35;;;3.45;;
69502;SDS011;56704;54.242;12.442;2023-03-01T06:18:55;15.73;;;4.78;;
69502;SDS011;56704;54.242;12.442;2023-03-01T06:21:21;13.18;;;3.72;;
69502;SDS011;56704;54.242;12.442;2023-03-01T06:23:48;15.60;;;5.50;;
69502;SDS011;56704;54.242;12.442;2023-03-01T06:26:16;12.73;;;4.88;;
69502;SDS011;56704;54.242;12.442;2023-03-01T06:28:42;14.50;;;5.00;;
69502;SDS011;56704;54.242;12.442;2023-03-01T06:31:11;15.90;;;5.85;;
69502;SDS011;56704;54.242;12.442;2023-03-01T06:33:37;16.58;;;4.97;;
69502;SDS011;56704;54.242;12.442;2023-03-01T06:36:04;18.90;;;4.83;;
69502;SDS011;56704;54.242;12.442;2023-03-01T06:38:31;16.15;;;5.80;;
69502;SDS011;56704;54.242;12.442;2023-03-01T06:40:58;13.88;;;5.57;;
69502;SDS011;56704;54.242;12.442;2023-03-01T06:43:25;16.38;;;5.50;;
69502;SDS011;56704;54.242;12.442;2023-03-01T06:45:52;18.83;;;6.30;;
69502;SDS011;56704;54.242;12.442;2023-03-01T06:48:18;21.27;;;6.30;;
69502;SDS011;56704;54.242;12.442;2023-03-01T06:50:45;23.35;;;7.22;;
69502;SDS011;56704;54.242;12.442;2023-03-01T06:53:12;19.70;;;6.63;;
69502;SDS011;56704;54.242;12.442;2023-03-01T06:55:38;20.70;;;7.18;;
69502;SDS011;56704;54.242;12.442;2023-03-01T06:58:05;19.75;;;7.05;;
69502;SDS011;56704;54.242;12.442;2023-03-01T07:00:33;18.10;;;7.33;;
69502;SDS011;56704;54.242;12.442;2023-03-01T07:02:59;22.05;;;7.30;;
69502;SDS011;56704;54.242;12.442;2023-03-01T07:05:27;21.83;;;7.55;;
69502;SDS011;56704;54.242;12.442;2023-03-01T07:07:54;25.10;;;8.65;;
69502;SDS011;56704;54.242;12.442;2023-03-01T07:10:21;21.42;;;8.52;;
69502;SDS011;56704;54.242;12.442;2023-03-01T07:12:48;24.87;;;8.27;;
69502;SDS011;56704;54.242;12.442;2023-03-01T07:15:14;24.02;;;8.38;;
69502;SDS011;56704;54.242;12.442;2023-03-01T07:17:42;22.73;;;8.27;;
69502;SDS011;56704;54.242;12.442;2023-03-01T07:20:10;26.02;;;8.05;;
69502;SDS011;56704;54.242;12.442;2023-03-01T07:22:39;28.77;;;9.77;;
69502;SDS011;56704;54.242;12.442;2023-03-01T07:25:06;24.70;;;9.03;;
69502;SDS011;56704;54.242;12.442;2023-03-01T07:27:33;25.13;;;8.50;;
69502;SDS011;56704;54.242;12.442;2023-03-01T07:30:00;30.17;;;9.05;;
69502;SDS011;56704;54.242;12.442;2023-03-01T07:32:26;30.88;;;9.73;;
69502;SDS011;56704;54.242;12.442;2023-03-01T07:34:54;18.27;;;5.65;;
69502;SDS011;56704;54.242;12.442;2023-03-01T07:37:21;18.97;;;7.20;;
69502;SDS011;56704;54.242;12.442;2023-03-01T07:39:47;32.50;;;10.98;;
69502;SDS011;56704;54.242;12.442;2023-03-01T07:42:14;32.67;;;11.15;;
69502;SDS011;56704;54.242;12.442;2023-03-01T07:44:40;35.83;;;10.70;;
69502;SDS011;56704;54.242;12.442;2023-03-01T07:47:07;33.85;;;11.27;;
69502;SDS011;56704;54.242;12.442;2023-03-01T07:49:34;37.90;;;12.20;;
69502;SDS011;56704;54.242;12.442;2023-03-01T07:52:02;37.65;;;11.48;;
69502;SDS011;56704;54.242;12.442;2023-03-01T07:54:29;38.22;;;13.18;;
69502;SDS011;56704;54.242;12.442;2023-03-01T07:56:56;56.83;;;14.77;;
69502;SDS011;56704;54.242;12.442;2023-03-01T07:59:22;39.15;;;12.50;;
69502;SDS011;56704;54.242;12.442;2023-03-01T08:01:53;37.17;;;12.43;;
69502;SDS011;56704;54.242;12.442;2023-03-01T08:04:20;36.72;;;12.10;;
69502;SDS011;56704;54.242;12.442;2023-03-01T08:06:47;39.92;;;10.15;;
69502;SDS011;56704;54.242;12.442;2023-03-01T08:09:15;32.55;;;10.00;;
69502;SDS011;56704;54.242;12.442;2023-03-01T08:11:41;23.05;;;8.65;;
69502;SDS011;56704;54.242;12.442;2023-03-01T08:14:08;35.40;;;12.73;;
69502;SDS011;56704;54.242;12.442;2023-03-01T08:16:35;25.42;;;8.93;;
69502;SDS011;56704;54.242;12.442;2023-03-01T08:19:03;25.30;;;8.52;;
69502;SDS011;56704;54.242;12.442;2023-03-01T08:21:30;75.88;;;12.68;;
69502;SDS011;56704;54.242;12.442;2023-03-01T08:23:57;34.25;;;9.38;;
69502;SDS011;56704;54.242;12.442;2023-03-01T08:26:25;46.83;;;11.87;;
69502;SDS011;56704;54.242;12.442;2023-03-01T08:28:51;67.15;;;12.05;;
69502;SDS011;56704;54.242;12.442;2023-03-01T08:31:19;49.78;;;11.82;;
69502;SDS011;56704;54.242;12.442;2023-03-01T08:33:48;69.68;;;14.93;;
69502;SDS011;56704;54.242;12.442;2023-03-01T08:36:18;41.70;;;12.88;;
69502;SDS011;56704;54.242;12.442;2023-03-01T08:38:45;29.00;;;9.03;;
69502;SDS011;56704;54.242;12.442;2023-03-01T08:41:12;37.90;;;11.57;;
69502;SDS011;56704;54.242;12.442;2023-03-01T08:43:40;59.75;;;13.50;;
69502;SDS011;56704;54.242;12.442;2023-03-01T08:46:07;49.58;;;12.65;;
69502;SDS011;56704;54.242;12.442;2023-03-01T08:48:34;42.53;;;11.40;;
69502;SDS011;56704;54.242;12.442;2023-03-01T08:51:06;49.63;;;12.30;;
69502;SDS011;56704;54.242;12.442;2023-03-01T08:53:33;34.70;;;11.00;;
69502;SDS011;56704;54.242;12.442;2023-03-01T08:56:00;44.72;;;10.65;;
69502;SDS011;56704;54.242;12.442;2023-03-01T08:58:27;36.88;;;11.95;;
69502;SDS011;56704;54.242;12.442;2023-03-01T09:00:55;39.25;;;13.30;;
69502;SDS011;56704;54.242;12.442;2023-03-01T09:03:22;42.93;;;11.03;;
69502;SDS011;56704;54.242;12.442;2023-03-01T09:05:49;39.60;;;11.20;;
69502;SDS011;56704;54.242;12.442;2023-03-01T09:08:16;24.02;;;8.23;;
69502;SDS011;56704;54.242;12.442;2023-03-01T09:10:43;34.97;;;12.15;;
69502;SDS011;56704;54.242;12.442;2023-03-01T09:13:09;38.28;;;10.75;;
69502;SDS011;56704;54.242;12.442;2023-03-01T09:15:36;39.17;;;10.63;;
69502;SDS011;56704;54.242;12.442;2023-03-01T09:18:04;36.45;;;11.65;;
69502;SDS011;56704;54.242;12.442;2023-03-01T09:20:31;27.80;;;8.60;;
69502;SDS011;56704;54.242;12.442;2023-03-01T09:22:58;34.63;;;10.25;;
69502;SDS011;56704;54.242;12.442;2023-03-01T09:25:24;36.20;;;12.30;;
69502;SDS011;56704;54.242;12.442;2023-03-01T09:27:51;37.40;;;11.70;;
69502;SDS011;56704;54.242;12.442;2023-03-01T09:30:18;35.42;;;11.85;;
69502;SDS011;56704;54.242;12.442;2023-03-01T09:32:45;41.88;;;11.77;;
69502;SDS011;56704;54.242;12.442;2023-03-01T09:35:13;41.70;;;10.75;;
69502;SDS011;56704;54.242;12.442;2023-03-01T09:37:40;39.03;;;12.25;;
69502;SDS011;56704;54.242;12.442;2023-03-01T09:40:09;39.00;;;12.17;;
69502;SDS011;56704;54.242;12.442;2023-03-01T09:42:45;38.22;;;11.70;;
69502;SDS011;56704;54.242;12.442;2023-03-01T09:45:18;49.95;;;12.90;;
69502;SDS011;56704;54.242;12.442;2023-03-01T09:47:52;39.88;;;13.43;;
69502;SDS011;56704;54.242;12.442;2023-03-01T09:50:21;43.75;;;13.40;;
69502;SDS011;56704;54.242;12.442;2023-03-01T09:52:50;40.07;;;13.03;;
69502;SDS011;56704;54.242;12.442;2023-03-01T09:55:23;39.00;;;12.48;;
69502;SDS011;56704;54.242;12.442;2023-03-01T09:57:53;37.38;;;13.35;;
69502;SDS011;56704;54.242;12.442;2023-03-01T10:00:27;35.03;;;12.25;;
69502;SDS011;56704;54.242;12.442;2023-03-01T10:03:01;14.75;;;5.93;;
69502;SDS011;56704;54.242;12.442;2023-03-01T10:05:38;32.83;;;11.17;;
69502;SDS011;56704;54.242;12.442;2023-03-01T10:08:23;31.35;;;11.38;;
69502;SDS011;56704;54.242;12.442;2023-03-01T10:10:54;35.15;;;15.32;;
69502;SDS011;56704;54.242;12.442;2023-03-01T10:13:23;36.05;;;12.00;;
69502;SDS011;56704;54.242;12.442;2023-03-01T10:15:53;40.67;;;12.52;;
69502;SDS011;56704;54.242;12.442;2023-03-01T10:18:23;33.70;;;11.43;;
69502;SDS011;56704;54.242;12.442;2023-03-01T10:20:55;34.53;;;12.27;;
69502;SDS011;56704;54.242;12.442;2023-03-01T10:23:24;34.85;;;11.55;;
69502;SDS011;56704;54.242;12.442;2023-03-01T10:25:56;38.60;;;12.25;;
69502;SDS011;56704;54.242;12.442;2023-03-01T10:28:54;35.95;;;12.90;;
69502;SDS011;56704;54.242;12.442;2023-03-01T10:31:31;37.40;;;12.30;;
69502;SDS011;56704;54.242;12.442;2023-03-01T10:34:07;40.13;;;12.73;;
69502;SDS011;56704;54.242;12.442;2023-03-01T10:36:36;35.65;;;12.68;;
69502;SDS011;56704;54.242;12.442;2023-03-01T10:39:10;36.33;;;12.23;;
69502;SDS011;56704;54.242;12.442;2023-03-01T10:41:44;43.88;;;14.32;;
69502;SDS011;56704;54.242;12.442;2023-03-01T10:44:34;39.33;;;12.97;;
69502;SDS011;56704;54.242;12.442;2023-03-01T10:47:04;33.53;;;11.55;;
69502;SDS011;56704;54.242;12.442;2023-03-01T10:49:31;34.58;;;12.15;;
69502;SDS011;56704;54.242;12.442;2023-03-01T10:52:11;35.83;;;12.13;;
69502;SDS011;56704;54.242;12.442;2023-03-01T10:54:50;21.92;;;9.10;;
69502;SDS011;56704;54.242;12.442;2023-03-01T10:57:28;35.93;;;12.13;;
69502;SDS011;56704;54.242;12.442;2023-03-01T11:00:02;34.17;;;11.65;;
69502;SDS011;56704;54.242;12.442;2023-03-01T11:02:42;30.77;;;10.52;;
69502;SDS011;56704;54.242;12.442;2023-03-01T11:05:15;34.70;;;12.77;;
69502;SDS011;56704;54.242;12.442;2023-03-01T11:07:50;30.30;;;11.20;;
69502;SDS011;56704;54.242;12.442;2023-03-01T11:10:18;35.87;;;11.77;;
69502;SDS011;56704;54.242;12.442;2023-03-01T11:12:46;34.42;;;11.60;;
69502;SDS011;56704;54.242;12.442;2023-03-01T11:15:23;37.13;;;11.70;;
69502;SDS011;56704;54.242;12.442;2023-03-01T11:17:52;36.00;;;12.57;;
69502;SDS011;56704;54.242;12.442;2023-03-01T11:20:24;33.40;;;11.70;;
69502;SDS011;56704;54.242;12.442;2023-03-01T11:22:54;34.97;;;12.13;;
69502;SDS011;56704;54.242;12.442;2023-03-01T11:25:24;35.90;;;11.82;;
69502;SDS011;56704;54.242;12.442;2023-03-01T11:27:53;30.65;;;11.15;;
69502;SDS011;56704;54.242;12.442;2023-03-01T11:30:23;32.72;;;11.73;;
69502;SDS011;56704;54.242;12.442;2023-03-01T11:32:57;29.55;;;11.10;;
69502;SDS011;56704;54.242;12.442;2023-03-01T11:35:30;35.03;;;11.80;;
69502;SDS011;56704;54.242;12.442;2023-03-01T11:38:05;32.60;;;10.88;;
69502;SDS011;56704;54.242;12.442;2023-03-01T11:40:45;37.55;;;12.65;;
69502;SDS011;56704;54.242;12.442;2023-03-01T11:43:17;35.35;;;11.38;;
69502;SDS011;56704;54.242;12.442;2023-03-01T11:45:56;32.53;;;11.40;;
69502;SDS011;56704;54.242;12.442;2023-03-01T11:48:45;28.03;;;9.27;;
69502;SDS011;56704;54.242;12.442;2023-03-01T11:51:21;31.83;;;10.68;;
69502;SDS011;56704;54.242;12.442;2023-03-01T11:53:56;32.45;;;10.55;;
69502;SDS011;56704;54.242;12.442;2023-03-01T11:56:31;33.33;;;11.43;;
69502;SDS011;56704;54.242;12.442;2023-03-01T11:59:11;34.88;;;11.10;;
69502;SDS011;56704;54.242;12.442;2023-03-01T12:02:18;33.43;;;11.67;;
69502;SDS011;56704;54.242;12.442;2023-03-01T12:07:52;26.88;;;10.05;;
69502;SDS011;56704;54.242;12.442;2023-03-01T12:10:28;28.40;;;10.57;;
69502;SDS011;56704;54.242;12.442;2023-03-01T12:13:05;27.55;;;10.20;;
69502;SDS011;56704;54.242;12.442;2023-03-01T12:15:51;29.23;;;10.50;;
69502;SDS011;56704;54.242;12.442;2023-03-01T12:21:35;26.85;;;8.80;;
69502;SDS011;56704;54.242;12.442;2023-03-01T12:27:18;32.72;;;11.50;;
69502;SDS011;56704;54.242;12.442;2023-03-01T12:29:57;30.90;;;10.57;;
69502;SDS011;56704;54.242;12.442;2023-03-01T12:32:39;28.25;;;9.85;;
69502;SDS011;56704;54.242;12.442;2023-03-01T12:35:20;33.55;;;11.13;;
69502;SDS011;56704;54.242;12.442;2023-03-01T12:38:01;30.33;;;11.02;;
69502;SDS011;56704;54.242;12.442;2023-03-01T12:43:36;33.10;;;12.20;;
69502;SDS011;56704;54.242;12.442;2023-03-01T12:46:15;35.45;;;12.50;;
69502;SDS011;56704;54.242;12.442;2023-03-01T12:48:53;32.28;;;11.07;;
69502;SDS011;56704;54.242;12.442;2023-03-01T12:51:28;36.38;;;12.48;;
69502;SDS011;56704;54.242;12.442;2023-03-01T12:53:59;33.58;;;11.45;;
69502;SDS011;56704;54.242;12.442;2023-03-01T12:56:31;35.03;;;12.10;;
69502;SDS011;56704;54.242;12.442;2023-03-01T12:59:04;34.30;;;12.20;;
69502;SDS011;56704;54.242;12.442;2023-03-01T13:01:40;33.17;;;11.25;;
69502;SDS011;56704;54.242;12.442;2023-03-01T13:04:14;32.58;;;12.90;;
69502;SDS011;56704;54.242;12.442;2023-03-01T13:06:51;34.63;;;12.43;;
69502;SDS011;56704;54.242;12.442;2023-03-01T13:09:29;32.93;;;12.50;;
69502;SDS011;56704;54.242;12.442;2023-03-01T13:12:01;41.58;;;13.23;;
69502;SDS011;56704;54.242;12.442;2023-03-01T13:14:39;34.72;;;12.57;;
69502;SDS011;56704;54.242;12.442;2023-03-01T13:20:11;34.13;;;12.32;;
69502;SDS011;56704;54.242;12.442;2023-03-01T13:22:39;37.00;;;13.70;;
69502;SDS011;56704;54.242;12.442;2023-03-01T13:25:13;41.88;;;14.27;;
69502;SDS011;56704;54.242;12.442;2023-03-01T13:27:43;36.42;;;14.07;;
69502;SDS011;56704;54.242;12.442;2023-03-01T13:36:10;35.80;;;13.27;;
69502;SDS011;56704;54.242;12.442;2023-03-01T13:38:47;35.70;;;13.85;;
69502;SDS011;56704;54.242;12.442;2023-03-01T13:44:24;36.97;;;13.77;;
69502;SDS011;56704;54.242;12.442;2023-03-01T13:46:57;34.00;;;13.85;;
69502;SDS011;56704;54.242;12.442;2023-03-01T13:49:29;38.10;;;13.87;;
69502;SDS011;56704;54.242;12.442;2023-03-01T13:52:14;38.00;;;15.30;;
69502;SDS011;56704;54.242;12.442;2023-03-01T13:54:57;36.78;;;14.48;;
69502;SDS011;56704;54.242;12.442;2023-03-01T13:57:25;37.05;;;14.15;;
69502;SDS011;56704;54.242;12.442;2023-03-01T13:59:56;35.40;;;13.35;;
69502;SDS011;56704;54.242;12.442;2023-03-01T14:02:25;36.70;;;14.97;;
69502;SDS011;56704;54.242;12.442;2023-03-01T14:04:55;37.78;;;14.70;;
69502;SDS011;56704;54.242;12.442;2023-03-01T14:07:23;40.33;;;15.70;;
69502;SDS011;56704;54.242;12.442;2023-03-01T14:09:52;37.55;;;14.85;;
69502;SDS011;56704;54.242;12.442;2023-03-01T14:12:24;38.92;;;14.75;;
69502;SDS011;56704;54.242;12.442;2023-03-01T14:15:01;35.23;;;13.00;;
69502;SDS011;56704;54.242;12.442;2023-03-01T14:20:38;40.72;;;15.07;;
69502;SDS011;56704;54.242;12.442;2023-03-01T14:23:08;45.30;;;15.68;;
69502;SDS011;56704;54.242;12.442;2023-03-01T14:25:37;36.15;;;13.02;;
69502;SDS011;56704;54.242;12.442;2023-03-01T14:28:11;36.80;;;12.77;;
69502;SDS011;56704;54.242;12.442;2023-03-01T14:30:42;37.70;;;14.30;;
69502;SDS011;56704;54.242;12.442;2023-03-01T14:33:19;40.85;;;14.27;;
69502;SDS011;56704;54.242;12.442;2023-03-01T14:35:52;41.90;;;14.40;;
69502;SDS011;56704;54.242;12.442;2023-03-01T14:38:21;39.80;;;14.38;;
69502;SDS011;56704;54.242;12.442;2023-03-01T14:40:56;38.23;;;13.93;;
69502;SDS011;56704;54.242;12.442;2023-03-01T14:43:27;34.53;;;13.18;;
69502;SDS011;56704;54.242;12.442;2023-03-01T14:45:56;37.55;;;11.25;;
69502;SDS011;56704;54.242;12.442;2023-03-01T14:48:24;36.33;;;12.25;;
69502;SDS011;56704;54.242;12.442;2023-03-01T14:50:53;36.25;;;13.43;;
69502;SDS011;56704;54.242;12.442;2023-03-01T14:53:20;38.00;;;13.17;;
69502;SDS011;56704;54.242;12.442;2023-03-01T14:55:50;39.80;;;13.80;;
69502;SDS011;56704;54.242;12.442;2023-03-01T14:58:20;38.63;;;13.77;;
69502;SDS011;56704;54.242;12.442;2023-03-01T15:00:50;37.72;;;12.90;;
69502;SDS011;56704;54.242;12.442;2023-03-01T15:03:23;41.20;;;13.43;;